sensor_id;sensor_type;location;lat;lon;timestamp;P1;durP1;ratioP1;P2;durP2;ratioP2
49416;SDS011;35290;39.550;8.786;2022-09-27T00:01:55;7.25;;;1.35;;
49416;SDS011;35290;39.550;8.786;2022-09-27T00:04:21;3.42;;;1.25;;
49416;SDS011;35290;39.550;8.786;2022-09-27T00:06:46;8.02;;;1.40;;
49416;SDS011;35290;39.550;8.786;2022-09-27T00:09:12;4.75;;;1.30;;
49416;SDS011;35290;39.550;8.786;2022-09-27T00:11:38;6.18;;;1.40;;
49416;SDS011;35290;39.550;8.786;2022-09-27T00:14:07;10.30;;;2.25;;
49416;SDS011;35290;39.550;8.786;2022-09-27T00:16:33;5.50;;;1.33;;
49416;SDS011;35290;39.550;8.786;2022-09-27T00:19:01;5.28;;;1.23;;
49416;SDS011;35290;39.550;8.786;2022-09-27T00:21:29;4.25;;;1.15;;
49416;SDS011;35290;39.550;8.786;2022-09-27T00:23:56;3.17;;;1.10;;
49416;SDS011;35290;39.550;8.786;2022-09-27T00:26:23;9.90;;;1.85;;
49416;SDS011;35290;39.550;8.786;2022-09-27T00:28:48;6.35;;;1.30;;
49416;SDS011;35290;39.550;8.786;2022-09-27T00:31:20;3.05;;;1.10;;
49416;SDS011;35290;39.550;8.786;2022-09-27T00:33:53;6.10;;;1.10;;
49416;SDS011;35290;39.550;8.786;2022-09-27T00:36:19;6.45;;;1.20;;
49416;SDS011;35290;39.550;8.786;2022-09-27T00:38:46;5.03;;;1.10;;
49416;SDS011;35290;39.550;8.786;2022-09-27T00:41:17;4.82;;;1.08;;
49416;SDS011;35290;39.550;8.786;2022-09-27T00:43:54;4.05;;;1.13;;
49416;SDS011;35290;39.550;8.786;2022-09-27T00:48:59;9.80;;;1.23;;
49416;SDS011;35290;39.550;8.786;2022-09-27T00:51:30;4.65;;;1.10;;
49416;SDS011;35290;39.550;8.786;2022-09-27T00:53:57;9.55;;;1.85;;
49416;SDS011;35290;39.550;8.786;2022-09-27T00:56:24;6.63;;;1.13;;
49416;SDS011;35290;39.550;8.786;2022-09-27T00:58:53;9.15;;;1.38;;
49416;SDS011;35290;39.550;8.786;2022-09-27T01:01:22;11.95;;;1.45;;
49416;SDS011;35290;39.550;8.786;2022-09-27T01:06:38;7.05;;;1.25;;
49416;SDS011;35290;39.550;8.786;2022-09-27T01:09:07;12.45;;;1.95;;
49416;SDS011;35290;39.550;8.786;2022-09-27T01:11:56;6.60;;;1.77;;
49416;SDS011;35290;39.550;8.786;2022-09-27T01:22:41;5.35;;;1.30;;
49416;SDS011;35290;39.550;8.786;2022-09-27T01:25:17;3.53;;;1.20;;
49416;SDS011;35290;39.550;8.786;2022-09-27T01:30:41;6.90;;;1.70;;
49416;SDS011;35290;39.550;8.786;2022-09-27T01:35:56;2.25;;;1.27;;
49416;SDS011;35290;39.550;8.786;2022-09-27T01:43:35;5.90;;;1.48;;
49416;SDS011;35290;39.550;8.786;2022-09-27T01:46:10;6.60;;;1.40;;
49416;SDS011;35290;39.550;8.786;2022-09-27T01:48:39;6.45;;;1.30;;
49416;SDS011;35290;39.550;8.786;2022-09-27T01:51:21;5.68;;;1.50;;
49416;SDS011;35290;39.550;8.786;2022-09-27T01:53:50;5.30;;;1.50;;
49416;SDS011;35290;39.550;8.786;2022-09-27T01:56:17;7.55;;;1.45;;
49416;SDS011;35290;39.550;8.786;2022-09-27T01:58:51;10.23;;;1.83;;
49416;SDS011;35290;39.550;8.786;2022-09-27T02:01:20;5.95;;;1.83;;
49416;SDS011;35290;39.550;8.786;2022-09-27T02:03:47;9.18;;;1.60;;
49416;SDS011;35290;39.550;8.786;2022-09-27T02:06:15;7.63;;;1.65;;
49416;SDS011;35290;39.550;8.786;2022-09-27T02:08:54;7.95;;;1.80;;
49416;SDS011;35290;39.550;8.786;2022-09-27T02:11:22;7.53;;;1.77;;
49416;SDS011;35290;39.550;8.786;2022-09-27T02:21:36;7.25;;;1.67;;
49416;SDS011;35290;39.550;8.786;2022-09-27T02:24:10;6.10;;;1.45;;
49416;SDS011;35290;39.550;8.786;2022-09-27T02:26:42;4.03;;;1.50;;
49416;SDS011;35290;39.550;8.786;2022-09-27T02:31:39;6.32;;;1.58;;
49416;SDS011;35290;39.550;8.786;2022-09-27T02:34:13;7.80;;;1.65;;
49416;SDS011;35290;39.550;8.786;2022-09-27T02:36:40;4.32;;;1.20;;
49416;SDS011;35290;39.550;8.786;2022-09-27T02:39:06;4.68;;;1.35;;
49416;SDS011;35290;39.550;8.786;2022-09-27T02:41:31;4.15;;;1.30;;
49416;SDS011;35290;39.550;8.786;2022-09-27T02:43:58;4.05;;;1.30;;
49416;SDS011;35290;39.550;8.786;2022-09-27T02:46:39;4.45;;;1.20;;
49416;SDS011;35290;39.550;8.786;2022-09-27T02:54:43;5.35;;;1.90;;
49416;SDS011;35290;39.550;8.786;2022-09-27T03:00:11;6.43;;;1.73;;
49416;SDS011;35290;39.550;8.786;2022-09-27T03:03:01;5.13;;;1.83;;
49416;SDS011;35290;39.550;8.786;2022-09-27T03:05:30;3.63;;;1.73;;
49416;SDS011;35290;39.550;8.786;2022-09-27T03:07:58;3.50;;;1.33;;
49416;SDS011;35290;39.550;8.786;2022-09-27T03:10:25;5.85;;;1.90;;
49416;SDS011;35290;39.550;8.786;2022-09-27T03:12:52;8.23;;;1.92;;
49416;SDS011;35290;39.550;8.786;2022-09-27T03:15:18;5.75;;;1.50;;
49416;SDS011;35290;39.550;8.786;2022-09-27T03:17:44;4.28;;;1.48;;
49416;SDS011;35290;39.550;8.786;2022-09-27T03:20:10;6.05;;;1.52;;
49416;SDS011;35290;39.550;8.786;2022-09-27T03:22:35;4.18;;;1.50;;
49416;SDS011;35290;39.550;8.786;2022-09-27T03:25:02;5.72;;;1.90;;
49416;SDS011;35290;39.550;8.786;2022-09-27T03:27:29;4.50;;;1.95;;
49416;SDS011;35290;39.550;8.786;2022-09-27T03:29:54;7.05;;;2.28;;
49416;SDS011;35290;39.550;8.786;2022-09-27T03:32:20;9.57;;;2.83;;
49416;SDS011;35290;39.550;8.786;2022-09-27T03:34:45;6.90;;;2.70;;
49416;SDS011;35290;39.550;8.786;2022-09-27T03:37:11;4.72;;;2.08;;
49416;SDS011;35290;39.550;8.786;2022-09-27T03:39:36;5.65;;;2.30;;
49416;SDS011;35290;39.550;8.786;2022-09-27T03:42:02;7.18;;;2.40;;
49416;SDS011;35290;39.550;8.786;2022-09-27T03:44:27;7.68;;;2.75;;
49416;SDS011;35290;39.550;8.786;2022-09-27T03:46:53;5.97;;;3.28;;
49416;SDS011;35290;39.550;8.786;2022-09-27T03:49:18;6.55;;;3.10;;
49416;SDS011;35290;39.550;8.786;2022-09-27T03:51:44;6.93;;;2.78;;
49416;SDS011;35290;39.550;8.786;2022-09-27T03:54:09;7.38;;;3.28;;
49416;SDS011;35290;39.550;8.786;2022-09-27T03:56:35;4.15;;;2.95;;
49416;SDS011;35290;39.550;8.786;2022-09-27T03:59:00;6.25;;;3.28;;
49416;SDS011;35290;39.550;8.786;2022-09-27T04:01:26;8.32;;;3.10;;
49416;SDS011;35290;39.550;8.786;2022-09-27T04:03:52;6.78;;;3.38;;
49416;SDS011;35290;39.550;8.786;2022-09-27T04:06:18;8.63;;;3.90;;
49416;SDS011;35290;39.550;8.786;2022-09-27T04:08:44;9.07;;;3.42;;
49416;SDS011;35290;39.550;8.786;2022-09-27T04:11:11;11.88;;;3.70;;
49416;SDS011;35290;39.550;8.786;2022-09-27T04:13:37;10.20;;;4.78;;
49416;SDS011;35290;39.550;8.786;2022-09-27T04:16:02;8.63;;;4.30;;
49416;SDS011;35290;39.550;8.786;2022-09-27T04:18:28;7.45;;;4.10;;
49416;SDS011;35290;39.550;8.786;2022-09-27T04:20:54;9.82;;;4.03;;
49416;SDS011;35290;39.550;8.786;2022-09-27T04:23:19;11.55;;;3.88;;
49416;SDS011;35290;39.550;8.786;2022-09-27T04:25:45;8.05;;;4.00;;
49416;SDS011;35290;39.550;8.786;2022-09-27T04:28:11;10.32;;;4.05;;
49416;SDS011;35290;39.550;8.786;2022-09-27T04:30:37;8.80;;;5.38;;
49416;SDS011;35290;39.550;8.786;2022-09-27T04:33:02;10.52;;;4.22;;
49416;SDS011;35290;39.550;8.786;2022-09-27T04:35:28;11.55;;;4.57;;
49416;SDS011;35290;39.550;8.786;2022-09-27T04:38:12;9.82;;;3.95;;
49416;SDS011;35290;39.550;8.786;2022-09-27T04:40:38;11.13;;;4.40;;
49416;SDS011;35290;39.550;8.786;2022-09-27T04:43:04;10.30;;;4.47;;
49416;SDS011;35290;39.550;8.786;2022-09-27T04:45:29;8.15;;;4.97;;
49416;SDS011;35290;39.550;8.786;2022-09-27T04:47:55;14.05;;;4.32;;
49416;SDS011;35290;39.550;8.786;2022-09-27T04:50:20;11.10;;;4.10;;
49416;SDS011;35290;39.550;8.786;2022-09-27T04:52:52;9.35;;;3.25;;
49416;SDS011;35290;39.550;8.786;2022-09-27T04:57:44;7.85;;;2.53;;
49416;SDS011;35290;39.550;8.786;2022-09-27T05:00:10;6.43;;;2.70;;
49416;SDS011;35290;39.550;8.786;2022-09-27T05:02:36;6.88;;;2.50;;
49416;SDS011;35290;39.550;8.786;2022-09-27T05:05:02;8.90;;;3.00;;
49416;SDS011;35290;39.550;8.786;2022-09-27T05:07:28;9.25;;;3.35;;
49416;SDS011;35290;39.550;8.786;2022-09-27T05:09:53;12.85;;;3.00;;
49416;SDS011;35290;39.550;8.786;2022-09-27T05:12:20;6.85;;;3.08;;
49416;SDS011;35290;39.550;8.786;2022-09-27T05:14:46;11.82;;;3.00;;
49416;SDS011;35290;39.550;8.786;2022-09-27T05:17:12;8.40;;;2.90;;
49416;SDS011;35290;39.550;8.786;2022-09-27T05:19:38;9.82;;;2.70;;
49416;SDS011;35290;39.550;8.786;2022-09-27T05:22:06;7.35;;;2.55;;
49416;SDS011;35290;39.550;8.786;2022-09-27T05:24:33;8.75;;;2.47;;
49416;SDS011;35290;39.550;8.786;2022-09-27T05:26:59;10.27;;;3.03;;
49416;SDS011;35290;39.550;8.786;2022-09-27T05:29:25;6.10;;;2.45;;
49416;SDS011;35290;39.550;8.786;2022-09-27T05:31:51;8.45;;;2.40;;
49416;SDS011;35290;39.550;8.786;2022-09-27T05:34:16;10.23;;;2.60;;
49416;SDS011;35290;39.550;8.786;2022-09-27T05:36:45;11.80;;;2.45;;
49416;SDS011;35290;39.550;8.786;2022-09-27T05:39:11;7.10;;;1.90;;
49416;SDS011;35290;39.550;8.786;2022-09-27T05:41:37;6.28;;;2.13;;
49416;SDS011;35290;39.550;8.786;2022-09-27T05:44:04;7.90;;;2.20;;
49416;SDS011;35290;39.550;8.786;2022-09-27T05:46:29;10.23;;;2.55;;
49416;SDS011;35290;39.550;8.786;2022-09-27T05:48:55;11.25;;;2.92;;
49416;SDS011;35290;39.550;8.786;2022-09-27T05:51:21;11.15;;;2.63;;
49416;SDS011;35290;39.550;8.786;2022-09-27T05:53:46;9.88;;;2.35;;
49416;SDS011;35290;39.550;8.786;2022-09-27T05:56:12;10.23;;;2.10;;
49416;SDS011;35290;39.550;8.786;2022-09-27T05:58:37;6.03;;;2.10;;
49416;SDS011;35290;39.550;8.786;2022-09-27T06:01:05;7.07;;;1.90;;
49416;SDS011;35290;39.550;8.786;2022-09-27T06:03:32;5.15;;;1.90;;
49416;SDS011;35290;39.550;8.786;2022-09-27T06:06:00;6.35;;;2.10;;
49416;SDS011;35290;39.550;8.786;2022-09-27T06:08:26;7.80;;;2.00;;
49416;SDS011;35290;39.550;8.786;2022-09-27T06:10:59;8.43;;;2.10;;
49416;SDS011;35290;39.550;8.786;2022-09-27T06:13:25;8.60;;;1.88;;
49416;SDS011;35290;39.550;8.786;2022-09-27T06:15:51;8.95;;;2.00;;
49416;SDS011;35290;39.550;8.786;2022-09-27T06:18:17;16.17;;;2.10;;
49416;SDS011;35290;39.550;8.786;2022-09-27T06:20:42;9.23;;;2.05;;
49416;SDS011;35290;39.550;8.786;2022-09-27T06:23:11;11.70;;;1.88;;
49416;SDS011;35290;39.550;8.786;2022-09-27T06:25:38;7.20;;;1.70;;
49416;SDS011;35290;39.550;8.786;2022-09-27T06:28:04;10.13;;;1.98;;
49416;SDS011;35290;39.550;8.786;2022-09-27T06:30:30;7.82;;;1.80;;
49416;SDS011;35290;39.550;8.786;2022-09-27T06:33:00;12.20;;;1.70;;
49416;SDS011;35290;39.550;8.786;2022-09-27T06:35:27;8.18;;;1.88;;
49416;SDS011;35290;39.550;8.786;2022-09-27T06:37:52;13.77;;;2.75;;
49416;SDS011;35290;39.550;8.786;2022-09-27T06:40:21;9.07;;;2.20;;
49416;SDS011;35290;39.550;8.786;2022-09-27T06:42:50;10.85;;;1.90;;
49416;SDS011;35290;39.550;8.786;2022-09-27T06:45:16;5.53;;;1.90;;
49416;SDS011;35290;39.550;8.786;2022-09-27T06:47:41;10.95;;;1.70;;
49416;SDS011;35290;39.550;8.786;2022-09-27T06:50:07;13.70;;;2.15;;
49416;SDS011;35290;39.550;8.786;2022-09-27T06:52:33;11.80;;;1.80;;
49416;SDS011;35290;39.550;8.786;2022-09-27T06:54:59;8.95;;;1.90;;
49416;SDS011;35290;39.550;8.786;2022-09-27T06:57:25;7.38;;;1.88;;
49416;SDS011;35290;39.550;8.786;2022-09-27T07:00:10;11.20;;;2.25;;
49416;SDS011;35290;39.550;8.786;2022-09-27T07:02:48;8.50;;;1.85;;
49416;SDS011;35290;39.550;8.786;2022-09-27T07:05:22;6.32;;;1.70;;
49416;SDS011;35290;39.550;8.786;2022-09-27T07:07:49;12.25;;;2.17;;
49416;SDS011;35290;39.550;8.786;2022-09-27T07:10:20;13.25;;;2.47;;
49416;SDS011;35290;39.550;8.786;2022-09-27T07:12:45;7.38;;;1.77;;
49416;SDS011;35290;39.550;8.786;2022-09-27T07:15:14;7.72;;;1.75;;
49416;SDS011;35290;39.550;8.786;2022-09-27T07:17:39;9.45;;;2.00;;
49416;SDS011;35290;39.550;8.786;2022-09-27T07:20:06;9.35;;;2.53;;
49416;SDS011;35290;39.550;8.786;2022-09-27T07:22:37;7.13;;;1.85;;
49416;SDS011;35290;39.550;8.786;2022-09-27T07:25:04;9.05;;;1.77;;
49416;SDS011;35290;39.550;8.786;2022-09-27T07:27:30;12.18;;;1.70;;
49416;SDS011;35290;39.550;8.786;2022-09-27T07:29:57;9.75;;;1.90;;
49416;SDS011;35290;39.550;8.786;2022-09-27T07:32:22;9.77;;;2.10;;
49416;SDS011;35290;39.550;8.786;2022-09-27T07:34:48;2.58;;;1.40;;
49416;SDS011;35290;39.550;8.786;2022-09-27T07:37:13;8.60;;;1.88;;
49416;SDS011;35290;39.550;8.786;2022-09-27T07:39:39;8.98;;;1.92;;
49416;SDS011;35290;39.550;8.786;2022-09-27T07:42:06;7.95;;;2.08;;
49416;SDS011;35290;39.550;8.786;2022-09-27T07:44:32;8.60;;;2.10;;
49416;SDS011;35290;39.550;8.786;2022-09-27T07:46:57;8.20;;;2.20;;
49416;SDS011;35290;39.550;8.786;2022-09-27T07:49:23;9.65;;;2.63;;
49416;SDS011;35290;39.550;8.786;2022-09-27T07:51:48;8.20;;;2.55;;
49416;SDS011;35290;39.550;8.786;2022-09-27T07:54:14;12.73;;;3.03;;
49416;SDS011;35290;39.550;8.786;2022-09-27T07:56:40;9.27;;;2.83;;
49416;SDS011;35290;39.550;8.786;2022-09-27T07:59:05;10.05;;;2.58;;
49416;SDS011;35290;39.550;8.786;2022-09-27T08:01:31;9.77;;;2.70;;
49416;SDS011;35290;39.550;8.786;2022-09-27T08:03:58;12.20;;;2.35;;
49416;SDS011;35290;39.550;8.786;2022-09-27T08:06:24;6.93;;;2.17;;
49416;SDS011;35290;39.550;8.786;2022-09-27T08:08:49;6.32;;;2.20;;
49416;SDS011;35290;39.550;8.786;2022-09-27T08:11:15;5.00;;;2.17;;
49416;SDS011;35290;39.550;8.786;2022-09-27T08:13:42;5.20;;;1.83;;
49416;SDS011;35290;39.550;8.786;2022-09-27T08:16:08;5.95;;;1.65;;
49416;SDS011;35290;39.550;8.786;2022-09-27T08:18:35;5.10;;;1.88;;
49416;SDS011;35290;39.550;8.786;2022-09-27T08:21:01;6.45;;;1.67;;
49416;SDS011;35290;39.550;8.786;2022-09-27T08:23:26;6.53;;;2.00;;
49416;SDS011;35290;39.550;8.786;2022-09-27T08:25:52;6.43;;;1.92;;
49416;SDS011;35290;39.550;8.786;2022-09-27T08:28:18;4.85;;;2.00;;
49416;SDS011;35290;39.550;8.786;2022-09-27T08:30:46;5.65;;;1.80;;
49416;SDS011;35290;39.550;8.786;2022-09-27T08:33:12;4.93;;;1.90;;
49416;SDS011;35290;39.550;8.786;2022-09-27T08:35:38;5.30;;;2.00;;
49416;SDS011;35290;39.550;8.786;2022-09-27T08:38:03;5.55;;;1.92;;
49416;SDS011;35290;39.550;8.786;2022-09-27T08:43:17;5.53;;;2.10;;
49416;SDS011;35290;39.550;8.786;2022-09-27T08:45:54;4.72;;;2.05;;
49416;SDS011;35290;39.550;8.786;2022-09-27T08:48:35;4.45;;;2.10;;
49416;SDS011;35290;39.550;8.786;2022-09-27T08:51:02;5.13;;;1.90;;
49416;SDS011;35290;39.550;8.786;2022-09-27T08:53:38;6.25;;;2.42;;
49416;SDS011;35290;39.550;8.786;2022-09-27T08:56:08;8.02;;;2.38;;
49416;SDS011;35290;39.550;8.786;2022-09-27T09:01:09;5.57;;;1.70;;
49416;SDS011;35290;39.550;8.786;2022-09-27T09:03:39;4.35;;;1.85;;
49416;SDS011;35290;39.550;8.786;2022-09-27T09:06:11;4.90;;;2.00;;
49416;SDS011;35290;39.550;8.786;2022-09-27T09:09:12;5.45;;;1.85;;
49416;SDS011;35290;39.550;8.786;2022-09-27T09:29:32;6.20;;;2.30;;
49416;SDS011;35290;39.550;8.786;2022-09-27T09:32:32;4.70;;;1.63;;
49416;SDS011;35290;39.550;8.786;2022-09-27T09:35:32;8.32;;;2.67;;
49416;SDS011;35290;39.550;8.786;2022-09-27T09:38:05;3.83;;;1.58;;
49416;SDS011;35290;39.550;8.786;2022-09-27T09:40:45;4.78;;;1.40;;
49416;SDS011;35290;39.550;8.786;2022-09-27T09:43:32;5.78;;;1.30;;
49416;SDS011;35290;39.550;8.786;2022-09-27T09:46:09;8.25;;;1.30;;
49416;SDS011;35290;39.550;8.786;2022-09-27T09:48:46;3.35;;;1.10;;
49416;SDS011;35290;39.550;8.786;2022-09-27T09:51:19;2.67;;;0.90;;
49416;SDS011;35290;39.550;8.786;2022-09-27T09:53:53;4.47;;;1.33;;
49416;SDS011;35290;39.550;8.786;2022-09-27T09:58:59;3.58;;;1.40;;
49416;SDS011;35290;39.550;8.786;2022-09-27T10:03:53;4.28;;;1.10;;
49416;SDS011;35290;39.550;8.786;2022-09-27T10:06:20;2.50;;;1.00;;
49416;SDS011;35290;39.550;8.786;2022-09-27T10:08:47;4.28;;;1.25;;
49416;SDS011;35290;39.550;8.786;2022-09-27T10:11:21;5.10;;;1.60;;
49416;SDS011;35290;39.550;8.786;2022-09-27T10:13:49;5.30;;;1.52;;
49416;SDS011;35290;39.550;8.786;2022-09-27T10:16:16;7.45;;;1.73;;
49416;SDS011;35290;39.550;8.786;2022-09-27T10:18:43;4.93;;;1.67;;
49416;SDS011;35290;39.550;8.786;2022-09-27T10:21:14;3.92;;;1.42;;
49416;SDS011;35290;39.550;8.786;2022-09-27T10:24:03;7.63;;;1.50;;
49416;SDS011;35290;39.550;8.786;2022-09-27T10:26:34;10.45;;;2.40;;
49416;SDS011;35290;39.550;8.786;2022-09-27T10:29:13;7.05;;;2.30;;
49416;SDS011;35290;39.550;8.786;2022-09-27T10:31:40;6.32;;;2.05;;
49416;SDS011;35290;39.550;8.786;2022-09-27T10:34:30;11.03;;;2.33;;
49416;SDS011;35290;39.550;8.786;2022-09-27T10:39:44;6.72;;;2.00;;
49416;SDS011;35290;39.550;8.786;2022-09-27T10:44:58;6.28;;;1.48;;
49416;SDS011;35290;39.550;8.786;2022-09-27T10:47:59;5.90;;;1.33;;
49416;SDS011;35290;39.550;8.786;2022-09-27T10:50:26;4.55;;;1.40;;
49416;SDS011;35290;39.550;8.786;2022-09-27T10:53:11;5.78;;;1.45;;
49416;SDS011;35290;39.550;8.786;2022-09-27T10:55:37;2.70;;;1.15;;
49416;SDS011;35290;39.550;8.786;2022-09-27T10:58:03;6.25;;;1.50;;
49416;SDS011;35290;39.550;8.786;2022-09-27T11:00:30;3.88;;;1.10;;
49416;SDS011;35290;39.550;8.786;2022-09-27T11:02:59;4.82;;;1.52;;
49416;SDS011;35290;39.550;8.786;2022-09-27T11:05:34;3.65;;;1.35;;
49416;SDS011;35290;39.550;8.786;2022-09-27T11:10:43;5.07;;;1.50;;
49416;SDS011;35290;39.550;8.786;2022-09-27T11:13:16;4.55;;;1.35;;
49416;SDS011;35290;39.550;8.786;2022-09-27T11:18:21;6.65;;;1.30;;
49416;SDS011;35290;39.550;8.786;2022-09-27T11:21:04;7.72;;;1.52;;
49416;SDS011;35290;39.550;8.786;2022-09-27T11:29:34;6.90;;;1.85;;
49416;SDS011;35290;39.550;8.786;2022-09-27T11:32:25;9.77;;;1.67;;
49416;SDS011;35290;39.550;8.786;2022-09-27T11:48:47;7.25;;;1.40;;
49416;SDS011;35290;39.550;8.786;2022-09-27T11:51:57;7.15;;;1.80;;
49416;SDS011;35290;39.550;8.786;2022-09-27T11:54:44;5.78;;;1.10;;
49416;SDS011;35290;39.550;8.786;2022-09-27T11:57:24;4.20;;;1.20;;
49416;SDS011;35290;39.550;8.786;2022-09-27T12:11:02;5.60;;;1.30;;
49416;SDS011;35290;39.550;8.786;2022-09-27T12:13:44;7.03;;;1.10;;
49416;SDS011;35290;39.550;8.786;2022-09-27T12:16:14;8.43;;;1.42;;
49416;SDS011;35290;39.550;8.786;2022-09-27T12:18:40;7.60;;;1.45;;
49416;SDS011;35290;39.550;8.786;2022-09-27T12:21:07;8.70;;;1.55;;
49416;SDS011;35290;39.550;8.786;2022-09-27T12:23:42;6.55;;;1.38;;
49416;SDS011;35290;39.550;8.786;2022-09-27T12:29:08;7.65;;;1.10;;
49416;SDS011;35290;39.550;8.786;2022-09-27T12:31:36;5.78;;;1.02;;
49416;SDS011;35290;39.550;8.786;2022-09-27T12:37:03;11.65;;;1.60;;
49416;SDS011;35290;39.550;8.786;2022-09-27T12:39:56;5.82;;;1.10;;
49416;SDS011;35290;39.550;8.786;2022-09-27T12:42:28;6.95;;;1.38;;
49416;SDS011;35290;39.550;8.786;2022-09-27T12:44:56;7.07;;;1.00;;
49416;SDS011;35290;39.550;8.786;2022-09-27T12:50:25;4.90;;;0.98;;
49416;SDS011;35290;39.550;8.786;2022-09-27T12:53:16;6.75;;;1.60;;
49416;SDS011;35290;39.550;8.786;2022-09-27T13:04:07;6.65;;;2.03;;
49416;SDS011;35290;39.550;8.786;2022-09-27T13:06:55;10.73;;;1.60;;
49416;SDS011;35290;39.550;8.786;2022-09-27T13:12:13;11.35;;;1.55;;
49416;SDS011;35290;39.550;8.786;2022-09-27T13:14:56;8.40;;;1.50;;
49416;SDS011;35290;39.550;8.786;2022-09-27T13:22:48;8.90;;;1.67;;
49416;SDS011;35290;39.550;8.786;2022-09-27T13:30:57;10.15;;;1.60;;
49416;SDS011;35290;39.550;8.786;2022-09-27T13:41:53;3.70;;;0.90;;
49416;SDS011;35290;39.550;8.786;2022-09-27T13:49:52;6.13;;;1.20;;
49416;SDS011;35290;39.550;8.786;2022-09-27T13:54:52;4.97;;;1.10;;
49416;SDS011;35290;39.550;8.786;2022-09-27T14:00:24;6.03;;;1.42;;
49416;SDS011;35290;39.550;8.786;2022-09-27T14:03:53;3.97;;;1.35;;
49416;SDS011;35290;39.550;8.786;2022-09-27T14:05:57;5.13;;;1.10;;
49416;SDS011;35290;39.550;8.786;2022-09-27T14:11:09;7.72;;;1.40;;
49416;SDS011;35290;39.550;8.786;2022-09-27T14:13:36;10.80;;;1.90;;
49416;SDS011;35290;39.550;8.786;2022-09-27T14:16:03;13.35;;;4.18;;
49416;SDS011;35290;39.550;8.786;2022-09-27T14:18:30;7.88;;;1.83;;
49416;SDS011;35290;39.550;8.786;2022-09-27T14:21:17;5.70;;;1.40;;
49416;SDS011;35290;39.550;8.786;2022-09-27T14:24:16;6.35;;;1.30;;
49416;SDS011;35290;39.550;8.786;2022-09-27T14:26:49;9.52;;;1.75;;
49416;SDS011;35290;39.550;8.786;2022-09-27T14:29:29;11.52;;;2.15;;
49416;SDS011;35290;39.550;8.786;2022-09-27T14:32:08;11.63;;;1.70;;
49416;SDS011;35290;39.550;8.786;2022-09-27T14:34:36;8.05;;;1.40;;
49416;SDS011;35290;39.550;8.786;2022-09-27T14:37:03;7.00;;;1.48;;
49416;SDS011;35290;39.550;8.786;2022-09-27T14:39:54;8.55;;;1.52;;
49416;SDS011;35290;39.550;8.786;2022-09-27T14:42:24;16.63;;;2.42;;
49416;SDS011;35290;39.550;8.786;2022-09-27T14:44:51;12.52;;;2.58;;
49416;SDS011;35290;39.550;8.786;2022-09-27T14:49:48;15.95;;;2.40;;
49416;SDS011;35290;39.550;8.786;2022-09-27T14:52:24;9.88;;;1.98;;
49416;SDS011;35290;39.550;8.786;2022-09-27T14:55:05;11.18;;;2.45;;
49416;SDS011;35290;39.550;8.786;2022-09-27T14:57:31;11.50;;;1.95;;
49416;SDS011;35290;39.550;8.786;2022-09-27T15:00:00;10.30;;;2.00;;
49416;SDS011;35290;39.550;8.786;2022-09-27T15:02:29;13.02;;;1.95;;
49416;SDS011;35290;39.550;8.786;2022-09-27T15:04:57;11.25;;;2.10;;
49416;SDS011;35290;39.550;8.786;2022-09-27T15:07:22;11.40;;;2.60;;
49416;SDS011;35290;39.550;8.786;2022-09-27T15:09:48;10.27;;;1.40;;
49416;SDS011;35290;39.550;8.786;2022-09-27T15:12:17;9.20;;;1.73;;
49416;SDS011;35290;39.550;8.786;2022-09-27T15:14:49;11.43;;;1.65;;
49416;SDS011;35290;39.550;8.786;2022-09-27T15:17:15;10.52;;;1.50;;
49416;SDS011;35290;39.550;8.786;2022-09-27T15:20:02;8.70;;;1.60;;
49416;SDS011;35290;39.550;8.786;2022-09-27T15:22:41;13.25;;;2.10;;
49416;SDS011;35290;39.550;8.786;2022-09-27T15:25:15;8.38;;;1.60;;
49416;SDS011;35290;39.550;8.786;2022-09-27T15:28:02;11.93;;;1.85;;
49416;SDS011;35290;39.550;8.786;2022-09-27T15:30:36;11.40;;;1.98;;
49416;SDS011;35290;39.550;8.786;2022-09-27T15:33:04;12.93;;;2.13;;
49416;SDS011;35290;39.550;8.786;2022-09-27T15:35:32;9.43;;;1.85;;
49416;SDS011;35290;39.550;8.786;2022-09-27T15:43:34;11.85;;;2.03;;
49416;SDS011;35290;39.550;8.786;2022-09-27T15:46:08;12.50;;;1.92;;
49416;SDS011;35290;39.550;8.786;2022-09-27T15:49:35;15.93;;;2.20;;
49416;SDS011;35290;39.550;8.786;2022-09-27T15:51:42;19.63;;;2.60;;
49416;SDS011;35290;39.550;8.786;2022-09-27T15:54:09;14.45;;;2.53;;
49416;SDS011;35290;39.550;8.786;2022-09-27T15:56:35;14.10;;;2.63;;
49416;SDS011;35290;39.550;8.786;2022-09-27T15:59:02;16.50;;;2.30;;
49416;SDS011;35290;39.550;8.786;2022-09-27T16:01:27;14.68;;;2.20;;
49416;SDS011;35290;39.550;8.786;2022-09-27T16:03:53;16.77;;;2.65;;
49416;SDS011;35290;39.550;8.786;2022-09-27T16:06:18;18.77;;;2.30;;
49416;SDS011;35290;39.550;8.786;2022-09-27T16:08:45;12.32;;;2.00;;
49416;SDS011;35290;39.550;8.786;2022-09-27T16:11:11;14.85;;;2.63;;
49416;SDS011;35290;39.550;8.786;2022-09-27T16:13:39;16.13;;;2.90;;
49416;SDS011;35290;39.550;8.786;2022-09-27T16:16:04;12.25;;;2.20;;
49416;SDS011;35290;39.550;8.786;2022-09-27T16:18:30;15.13;;;2.53;;
49416;SDS011;35290;39.550;8.786;2022-09-27T16:20:59;14.77;;;1.92;;
49416;SDS011;35290;39.550;8.786;2022-09-27T16:23:24;14.40;;;2.03;;
49416;SDS011;35290;39.550;8.786;2022-09-27T16:25:53;10.45;;;2.08;;
49416;SDS011;35290;39.550;8.786;2022-09-27T16:28:18;14.18;;;2.10;;
49416;SDS011;35290;39.550;8.786;2022-09-27T16:30:44;13.40;;;2.25;;
49416;SDS011;35290;39.550;8.786;2022-09-27T16:33:09;14.55;;;2.38;;
49416;SDS011;35290;39.550;8.786;2022-09-27T16:35:37;13.18;;;2.10;;
49416;SDS011;35290;39.550;8.786;2022-09-27T16:38:04;18.83;;;2.20;;
49416;SDS011;35290;39.550;8.786;2022-09-27T16:40:30;11.95;;;2.10;;
49416;SDS011;35290;39.550;8.786;2022-09-27T16:42:56;21.65;;;2.72;;
49416;SDS011;35290;39.550;8.786;2022-09-27T16:45:24;14.48;;;2.03;;
49416;SDS011;35290;39.550;8.786;2022-09-27T16:47:56;13.13;;;2.53;;
49416;SDS011;35290;39.550;8.786;2022-09-27T16:50:23;9.02;;;1.88;;
49416;SDS011;35290;39.550;8.786;2022-09-27T16:53:07;17.27;;;2.70;;
49416;SDS011;35290;39.550;8.786;2022-09-27T16:55:34;12.80;;;2.00;;
49416;SDS011;35290;39.550;8.786;2022-09-27T16:57:59;15.18;;;2.35;;
49416;SDS011;35290;39.550;8.786;2022-09-27T17:00:27;12.85;;;2.08;;
49416;SDS011;35290;39.550;8.786;2022-09-27T17:02:53;14.23;;;2.20;;
49416;SDS011;35290;39.550;8.786;2022-09-27T17:05:18;14.93;;;2.53;;
49416;SDS011;35290;39.550;8.786;2022-09-27T17:07:48;11.00;;;2.22;;
49416;SDS011;35290;39.550;8.786;2022-09-27T17:10:14;11.63;;;2.10;;
49416;SDS011;35290;39.550;8.786;2022-09-27T17:12:40;13.57;;;2.30;;
49416;SDS011;35290;39.550;8.786;2022-09-27T17:15:05;8.63;;;2.08;;
49416;SDS011;35290;39.550;8.786;2022-09-27T17:17:31;14.80;;;2.10;;
49416;SDS011;35290;39.550;8.786;2022-09-27T17:19:57;14.85;;;2.55;;
49416;SDS011;35290;39.550;8.786;2022-09-27T17:22:22;11.57;;;2.00;;
49416;SDS011;35290;39.550;8.786;2022-09-27T17:24:48;13.30;;;2.40;;
49416;SDS011;35290;39.550;8.786;2022-09-27T17:27:15;17.33;;;2.28;;
49416;SDS011;35290;39.550;8.786;2022-09-27T17:29:40;15.07;;;2.03;;
49416;SDS011;35290;39.550;8.786;2022-09-27T17:32:06;14.60;;;1.85;;
49416;SDS011;35290;39.550;8.786;2022-09-27T17:34:32;16.15;;;2.60;;
49416;SDS011;35290;39.550;8.786;2022-09-27T17:36:59;14.18;;;2.72;;
49416;SDS011;35290;39.550;8.786;2022-09-27T17:39:24;14.52;;;2.42;;
49416;SDS011;35290;39.550;8.786;2022-09-27T17:41:50;17.35;;;2.30;;
49416;SDS011;35290;39.550;8.786;2022-09-27T17:44:16;11.85;;;2.30;;
49416;SDS011;35290;39.550;8.786;2022-09-27T17:46:42;19.77;;;2.50;;
49416;SDS011;35290;39.550;8.786;2022-09-27T17:49:09;14.20;;;2.15;;
49416;SDS011;35290;39.550;8.786;2022-09-27T17:51:54;14.43;;;2.70;;
49416;SDS011;35290;39.550;8.786;2022-09-27T17:54:20;14.68;;;2.30;;
49416;SDS011;35290;39.550;8.786;2022-09-27T17:56:47;15.73;;;2.80;;